Observations for NAPLES CAPODICHINO, Italy (LIRN)

LIRN 191250Z 08007KT 050V120 9999 SCT050 BKN080 25/16 Q1014 NOSIG   
LIRN 191220Z 07006KT 050V110 9999 SCT050 BKN080 24/16 Q1014 NOSIG   
LIRN 191150Z 20004KT 160V240 9999 SCT050 BKN080 24/16 Q1014 NOSIG   
LIRN 191120Z 20005KT 160V250 9999 SCT050 BKN080 24/17 Q1015 NOSIG   
LIRN 191050Z 15003KT 070V240 9999 FEW020 SCT050 BKN080 24/18 Q1015 RETS TEMPO NSW   
LIRN 191020Z VRB02KT 9999 -TSRA FEW020CB BKN050 BKN070 23/16 Q1015 TEMPO NSW
LIRN 190950Z 19005KT 140V280 9999 -TSRA FEW020CB BKN040 BKN070 23/20 Q1016 TEMPO NSW
LIRN 190920Z 21006KT 170V260 9999 FEW020 SCT040 BKN070 26/19 Q1016 TEMPO 4000 TSRA  
LIRN 190850Z 13004KT 080V220 9999 FEW030 SCT040 25/18 Q1016 NOSIG   
LIRN 190820Z VRB02KT 9999 FEW035 SCT075 26/18 Q1016 NOSIG   
LIRN 190750Z VRB02KT 9999 FEW035 SCT083 25/19 Q1016 NOSIG   
LIRN 190720Z VRB01KT 8000 NSC 25/19 Q1016 NOSIG 
LIRN 190650Z VRB01KT 8000 NSC 24/19 Q1015 NOSIG 
LIRN 190620Z 09003KT 8000 SCT060 22/18 Q1015 NOSIG  
LIRN 190550Z 07004KT 7000 SCT040 21/18 Q1015 NOSIG  
LIRN 190520Z 06003KT 7000 SCT035 20/18 Q1015 NOSIG  
LIRN 190450Z 07003KT 7000 SCT035 21/18 Q1015 NOSIG  
LIRN 190420Z VRB01KT CAVOK 20/18 Q1015 NOSIG
LIRN 190350Z VRB02KT CAVOK 20/18 Q1015 NOSIG
LIRN 190320Z 28002KT CAVOK 20/18 Q1015 NOSIG
LIRN 190250Z 34001KT CAVOK 21/18 Q1015 NOSIG
LIRN 190220Z 31002KT CAVOK 20/18 Q1015 NOSIG
LIRN 190150Z 32002KT CAVOK 20/18 Q1015 NOSIG
LIRN 190120Z 05002KT CAVOK 21/18 Q1015 NOSIG
LIRN 190050Z 07003KT CAVOK 22/19 Q1015 NOSIG
LIRN 190020Z VRB01KT CAVOK 21/18 Q1016 NOSIG
LIRN 182350Z VRB01KT CAVOK 22/18 Q1016 NOSIG
LIRN 182320Z VRB01KT CAVOK 22/19 Q1016 NOSIG
LIRN 182250Z VRB01KT CAVOK 22/19 Q1016 NOSIG
LIRN 182220Z 11002KT CAVOK 23/19 Q1016 NOSIG
LIRN 182150Z VRB02KT CAVOK 23/19 Q1016 NOSIG
LIRN 182120Z 08002KT CAVOK 23/19 Q1017 NOSIG
LIRN 182050Z VRB02KT 9999 SCT070 23/19 Q1017 NOSIG  
LIRN 182020Z VRB01KT CAVOK 23/19 Q1017 NOSIG
LIRN 181950Z VRB02KT 9999 SCT070 23/19 Q1017 NOSIG  
LIRN 181920Z 29004KT 9999 SCT070 23/19 Q1017 NOSIG  
LIRN 181850Z 30004KT 280V340 9999 SCT070 23/19 Q1016 NOSIG  
LIRN 181820Z VRB02KT 9999 SCT070 24/19 Q1016 NOSIG  
LIRN 181750Z VRB01KT 9999 FEW035 24/19 Q1016 NOSIG  
LIRN 181720Z VRB03KT 9999 SCT080 25/19 Q1016 NOSIG  
LIRN 181650Z 28005KT 9999 SCT080 25/18 Q1016 NOSIG  
LIRN 181620Z 28004KT 240V330 9999 FEW035 25/18 Q1015 NOSIG  
LIRN 181550Z 22005KT 190V250 9999 FEW035 26/19 Q1015 NOSIG  
LIRN 181520Z 19005KT 140V230 9999 FEW035 26/19 Q1015 NOSIG  
LIRN 181450Z 21007KT 170V240 9999 FEW035 27/20 Q1015 NOSIG  
LIRN 181420Z 20008KT 160V240 9999 FEW035 27/20 Q1015 NOSIG  
LIRN 181350Z 21008KT 170V240 9999 FEW035 27/19 Q1015 NOSIG  
LIRN 181320Z 20007KT 160V250 9999 FEW035 27/20 Q1015 NOSIG  
LIRN 181250Z 20008KT 160V240 9999 FEW040 27/19 Q1015 NOSIG